createdAt,value
2018-12-16T00:00:49.138Z,4.09
2018-12-16T00:01:49.164Z,4.16
2018-12-16T00:02:49.130Z,4.07
2018-12-16T00:03:49.331Z,3.99
2018-12-16T00:04:50.016Z,4.10
2018-12-16T00:05:49.213Z,4.12
2018-12-16T00:06:49.096Z,4.13
2018-12-16T00:07:49.147Z,4.13
2018-12-16T00:08:49.119Z,4.16
2018-12-16T00:09:49.099Z,4.12
2018-12-16T00:10:49.152Z,4.07
2018-12-16T00:11:49.218Z,4.12
2018-12-16T00:12:49.135Z,4.07
2018-12-16T00:13:49.169Z,4.00
2018-12-16T00:14:49.157Z,4.07
2018-12-16T00:15:49.366Z,4.10
2018-12-16T00:16:49.217Z,3.89
2018-12-16T00:17:49.116Z,3.89
2018-12-16T00:18:49.128Z,3.95
2018-12-16T00:19:49.408Z,3.92
2018-12-16T00:20:49.187Z,3.94
2018-12-16T00:21:49.270Z,3.99
2018-12-16T00:22:49.125Z,4.02
2018-12-16T00:23:49.138Z,3.92
2018-12-16T00:24:49.151Z,4.03
2018-12-16T00:25:49.144Z,3.86
2018-12-16T00:26:49.166Z,3.89
2018-12-16T00:27:49.244Z,3.89
2018-12-16T00:28:49.340Z,3.86
2018-12-16T00:29:49.677Z,4.00
2018-12-16T00:30:49.263Z,4.00
2018-12-16T00:31:49.184Z,3.99
2018-12-16T00:32:49.372Z,3.95
2018-12-16T00:33:49.231Z,4.00
2018-12-16T00:34:49.220Z,4.00
2018-12-16T00:35:49.152Z,4.04
2018-12-16T00:36:49.163Z,4.03
2018-12-16T00:37:49.206Z,4.03
2018-12-16T00:38:49.270Z,4.09
2018-12-16T00:39:49.189Z,4.03
2018-12-16T00:40:49.173Z,4.03
2018-12-16T00:41:49.205Z,4.02
2018-12-16T00:42:49.272Z,4.00
2018-12-16T00:43:49.205Z,4.00
2018-12-16T00:44:49.189Z,3.89
2018-12-16T00:45:49.190Z,3.81
2018-12-16T00:46:49.192Z,3.78
2018-12-16T00:47:49.181Z,3.78
2018-12-16T00:48:49.238Z,3.94
2018-12-16T00:49:49.202Z,3.86
2018-12-16T00:50:49.200Z,3.89
2018-12-16T00:51:49.911Z,3.73
2018-12-16T00:52:49.538Z,3.70
2018-12-16T00:53:49.233Z,3.85
2018-12-16T00:54:49.273Z,3.77
2018-12-16T00:55:49.351Z,3.77
2018-12-16T00:56:49.292Z,3.86
2018-12-16T00:57:49.212Z,3.91
2018-12-16T00:58:50.159Z,3.92
2018-12-16T00:59:49.231Z,3.86
2018-12-16T01:00:49.244Z,3.91
2018-12-16T01:01:49.229Z,3.92
2018-12-16T01:02:49.254Z,3.84
2018-12-16T01:03:49.237Z,3.88
2018-12-16T01:04:49.294Z,3.99
2018-12-16T01:05:49.285Z,4.00
2018-12-16T01:06:49.256Z,3.92
2018-12-16T01:07:49.247Z,3.85
2018-12-16T01:08:49.320Z,3.84
2018-12-16T01:09:49.335Z,3.86
2018-12-16T01:10:49.316Z,3.88
2018-12-16T01:11:49.267Z,3.86
2018-12-16T01:12:49.267Z,3.94
2018-12-16T01:13:49.269Z,3.92
2018-12-16T01:14:49.303Z,3.89
2018-12-16T01:15:49.393Z,3.77
2018-12-16T01:16:49.334Z,3.76
2018-12-16T01:17:49.342Z,3.88
2018-12-16T01:18:49.269Z,3.85
2018-12-16T01:19:49.282Z,3.89
2018-12-16T01:20:49.286Z,3.89
2018-12-16T01:21:49.315Z,3.99
2018-12-16T01:22:49.320Z,3.86
2018-12-16T01:23:49.384Z,3.84
2018-12-16T01:24:49.295Z,4.00
2018-12-16T01:25:49.303Z,3.89
2018-12-16T01:26:49.320Z,4.06
2018-12-16T01:27:49.298Z,3.95
2018-12-16T01:28:49.355Z,3.85
2018-12-16T01:29:49.289Z,4.03
2018-12-16T01:30:49.339Z,4.00
2018-12-16T01:31:49.307Z,4.00
2018-12-16T01:32:49.316Z,4.03
2018-12-16T01:33:49.284Z,3.95
2018-12-16T01:34:49.313Z,4.02
2018-12-16T01:35:49.329Z,3.96
2018-12-16T01:36:49.320Z,3.91
2018-12-16T01:37:49.360Z,3.84
2018-12-16T01:38:49.302Z,3.82
2018-12-16T01:39:49.376Z,3.88
2018-12-16T01:40:49.384Z,3.88
2018-12-16T01:41:49.358Z,3.85
2018-12-16T01:42:49.336Z,3.88
2018-12-16T01:43:49.363Z,3.89
2018-12-16T01:44:49.421Z,3.74
2018-12-16T01:45:49.334Z,3.78
2018-12-16T01:46:49.328Z,3.82
2018-12-16T01:47:49.362Z,3.82
2018-12-16T01:48:49.332Z,3.76
2018-12-16T01:49:49.369Z,3.84
2018-12-16T01:50:49.363Z,3.84
2018-12-16T01:51:50.029Z,3.82
2018-12-16T01:52:50.322Z,3.74
2018-12-16T01:53:49.401Z,3.74
2018-12-16T01:54:49.372Z,3.88
2018-12-16T01:55:49.368Z,3.95
2018-12-16T01:56:49.384Z,4.07
2018-12-16T01:57:49.408Z,4.04
2018-12-16T01:58:49.443Z,4.16
2018-12-16T01:59:49.448Z,4.14
2018-12-16T02:00:49.414Z,4.14
2018-12-16T02:01:49.471Z,4.06
2018-12-16T02:02:49.465Z,4.24
2018-12-16T02:03:49.404Z,4.24
2018-12-16T02:04:49.407Z,4.22
2018-12-16T02:05:49.404Z,4.25
2018-12-16T02:06:49.572Z,4.31
2018-12-16T02:07:49.399Z,4.30
2018-12-16T02:08:49.394Z,4.27
2018-12-16T02:09:49.457Z,4.27
2018-12-16T02:10:49.440Z,4.32
2018-12-16T02:11:49.462Z,4.20
2018-12-16T02:12:49.468Z,4.12
2018-12-16T02:13:49.440Z,4.18
2018-12-16T02:14:49.413Z,4.22
2018-12-16T02:15:49.431Z,4.18
2018-12-16T02:16:49.467Z,4.27
2018-12-16T02:17:49.443Z,4.18
2018-12-16T02:18:49.458Z,4.24
2018-12-16T02:19:49.469Z,4.22
2018-12-16T02:20:49.419Z,4.22
2018-12-16T02:21:49.460Z,4.36
2018-12-16T02:22:49.464Z,4.39
2018-12-16T02:23:49.463Z,4.31
2018-12-16T02:24:49.482Z,4.36
2018-12-16T02:25:49.452Z,4.36
2018-12-16T02:26:49.485Z,4.42
2018-12-16T02:27:49.441Z,4.45
2018-12-16T02:28:49.473Z,4.52
2018-12-16T02:29:49.495Z,4.49
2018-12-16T02:30:49.504Z,4.45
2018-12-16T02:31:49.449Z,4.34
2018-12-16T02:32:49.472Z,4.25
2018-12-16T02:33:49.500Z,4.28
2018-12-16T02:34:49.508Z,4.39
2018-12-16T02:35:49.473Z,4.46
2018-12-16T02:36:49.474Z,4.43
2018-12-16T02:37:49.576Z,4.30
2018-12-16T02:38:49.505Z,4.46
2018-12-16T02:39:49.523Z,4.42
2018-12-16T02:40:49.513Z,4.50
2018-12-16T02:41:49.533Z,4.52
2018-12-16T02:42:49.510Z,4.50
2018-12-16T02:43:49.471Z,4.50
2018-12-16T02:44:49.516Z,4.57
2018-12-16T02:45:49.482Z,4.53
2018-12-16T02:46:49.814Z,4.66
2018-12-16T02:47:49.493Z,4.66
2018-12-16T02:48:49.515Z,4.74
2018-12-16T02:49:49.484Z,4.78
2018-12-16T02:50:49.479Z,4.76
2018-12-16T02:51:49.564Z,4.71
2018-12-16T02:52:49.530Z,4.71
2018-12-16T02:53:49.497Z,4.75
2018-12-16T02:54:49.531Z,4.78
2018-12-16T02:55:49.543Z,4.70
2018-12-16T02:56:49.513Z,4.71
2018-12-16T02:57:49.537Z,4.74
2018-12-16T02:58:49.546Z,4.76
2018-12-16T02:59:49.523Z,4.78
2018-12-16T03:00:49.539Z,4.78
2018-12-16T03:01:49.544Z,4.79
2018-12-16T03:02:49.559Z,4.84
2018-12-16T03:03:49.545Z,4.87
2018-12-16T03:04:49.559Z,4.79
2018-12-16T03:05:49.555Z,4.78
2018-12-16T03:06:49.566Z,4.71
2018-12-16T03:07:49.532Z,4.83
2018-12-16T03:08:49.567Z,4.75
2018-12-16T03:09:49.548Z,4.74
2018-12-16T03:10:49.551Z,4.82
2018-12-16T03:11:49.574Z,4.78
2018-12-16T03:12:49.593Z,4.79
2018-12-16T03:13:49.554Z,4.76
2018-12-16T03:14:49.641Z,4.84
2018-12-16T03:15:49.602Z,4.78
2018-12-16T03:16:49.620Z,4.76
2018-12-16T03:17:49.581Z,4.78
2018-12-16T03:18:49.575Z,4.70
2018-12-16T03:19:49.598Z,4.61
2018-12-16T03:20:49.589Z,4.58
2018-12-16T03:21:49.582Z,4.46
2018-12-16T03:22:49.631Z,4.50
2018-12-16T03:23:49.612Z,4.49
2018-12-16T03:24:49.596Z,4.32
2018-12-16T03:25:49.586Z,4.40
2018-12-16T03:26:49.621Z,4.49
2018-12-16T03:27:49.627Z,4.45
2018-12-16T03:28:49.588Z,4.46
2018-12-16T03:29:49.628Z,4.38
2018-12-16T03:30:49.853Z,4.30
2018-12-16T03:31:49.608Z,4.22
2018-12-16T03:32:49.636Z,4.27
2018-12-16T03:33:49.649Z,4.25
2018-12-16T03:34:49.645Z,4.22
2018-12-16T03:35:49.632Z,4.20
2018-12-16T03:36:49.829Z,4.13
2018-12-16T03:37:49.635Z,4.10
2018-12-16T03:38:49.608Z,4.12
2018-12-16T03:39:49.637Z,4.10
2018-12-16T03:40:49.634Z,4.12
2018-12-16T03:41:49.642Z,4.03
2018-12-16T03:42:49.667Z,4.10
2018-12-16T03:43:49.662Z,4.10
2018-12-16T03:44:49.646Z,4.14
2018-12-16T03:45:49.668Z,4.16
2018-12-16T03:46:49.661Z,4.10
2018-12-16T03:47:49.678Z,4.10
2018-12-16T03:48:49.652Z,4.20
2018-12-16T03:49:49.644Z,4.12
2018-12-16T03:50:49.648Z,4.04
2018-12-16T03:51:49.698Z,4.06
2018-12-16T03:52:49.667Z,4.07
2018-12-16T03:53:49.670Z,4.06
2018-12-16T03:54:49.729Z,4.03
2018-12-16T03:55:49.665Z,4.04
2018-12-16T03:56:49.712Z,4.09
2018-12-16T03:57:49.682Z,4.07
2018-12-16T03:58:49.681Z,4.20
2018-12-16T03:59:49.862Z,4.20
2018-12-16T04:00:49.685Z,4.12
2018-12-16T04:01:49.727Z,4.24
2018-12-16T04:02:49.694Z,4.14
2018-12-16T04:03:49.749Z,4.18
2018-12-16T04:04:49.749Z,4.25
2018-12-16T04:05:49.732Z,4.24
2018-12-16T04:06:49.724Z,4.24
2018-12-16T04:07:49.759Z,4.31
2018-12-16T04:08:49.756Z,4.24
2018-12-16T04:09:49.738Z,4.13
2018-12-16T04:10:49.748Z,4.07
2018-12-16T04:11:49.742Z,3.99
2018-12-16T04:12:49.749Z,4.07
2018-12-16T04:13:49.740Z,3.94
2018-12-16T04:14:49.767Z,3.94
2018-12-16T04:15:49.748Z,4.03
2018-12-16T04:16:49.731Z,4.14
2018-12-16T04:17:49.755Z,4.06
2018-12-16T04:18:49.745Z,4.09
2018-12-16T04:19:49.763Z,4.09
2018-12-16T04:20:49.733Z,4.06
2018-12-16T04:21:49.763Z,4.13
2018-12-16T04:22:49.760Z,4.21
2018-12-16T04:23:49.778Z,4.21
2018-12-16T04:24:49.798Z,4.13
2018-12-16T04:25:49.821Z,4.12
2018-12-16T04:26:49.755Z,4.18
2018-12-16T04:27:49.786Z,4.09
2018-12-16T04:28:49.779Z,4.03
2018-12-16T04:29:49.855Z,4.07
2018-12-16T04:30:49.786Z,3.91
2018-12-16T04:31:49.798Z,3.89
2018-12-16T04:32:49.802Z,3.99
2018-12-16T04:33:49.842Z,4.06
2018-12-16T04:34:49.803Z,3.99
2018-12-16T04:35:49.835Z,3.77
2018-12-16T04:36:49.802Z,3.82
2018-12-16T04:37:49.781Z,3.76
2018-12-16T04:38:49.850Z,3.71
2018-12-16T04:39:49.796Z,3.81
2018-12-16T04:40:49.811Z,3.77
2018-12-16T04:41:49.823Z,3.84
2018-12-16T04:42:49.832Z,3.82
2018-12-16T04:43:49.879Z,3.77
2018-12-16T04:44:49.844Z,3.71
2018-12-16T04:45:49.819Z,3.71
2018-12-16T04:46:49.851Z,3.73
2018-12-16T04:47:49.804Z,3.73
2018-12-16T04:48:49.861Z,3.74
2018-12-16T04:49:49.852Z,3.68
2018-12-16T04:50:49.872Z,3.71
2018-12-16T04:51:49.837Z,3.66
2018-12-16T04:52:49.838Z,3.66
2018-12-16T04:53:49.798Z,3.77
2018-12-16T04:54:49.814Z,3.70
2018-12-16T04:55:49.862Z,3.74
2018-12-16T04:56:49.827Z,3.77
2018-12-16T04:57:49.865Z,3.78
2018-12-16T04:58:49.828Z,3.89
2018-12-16T04:59:49.832Z,3.94
2018-12-16T05:00:49.839Z,3.85
2018-12-16T05:01:49.841Z,3.85
2018-12-16T05:02:49.879Z,3.77
2018-12-16T05:03:49.932Z,3.85
2018-12-16T05:04:49.854Z,3.81
2018-12-16T05:05:49.859Z,3.89
2018-12-16T05:06:49.876Z,3.86
2018-12-16T05:07:49.919Z,3.85
2018-12-16T05:08:49.896Z,3.86
2018-12-16T05:09:49.945Z,3.84
2018-12-16T05:10:49.846Z,3.91
2018-12-16T05:11:49.872Z,4.00
2018-12-16T05:12:49.893Z,3.96
2018-12-16T05:13:49.904Z,3.86
2018-12-16T05:14:49.891Z,3.85
2018-12-16T05:15:49.853Z,3.86
2018-12-16T05:16:49.862Z,3.84
2018-12-16T05:17:49.897Z,3.86
2018-12-16T05:18:49.942Z,3.86
2018-12-16T05:19:49.874Z,3.95
2018-12-16T05:20:49.924Z,3.91
2018-12-16T05:21:49.902Z,3.86
2018-12-16T05:22:49.884Z,3.86
2018-12-16T05:23:49.917Z,3.86
2018-12-16T05:24:49.883Z,3.86
2018-12-16T05:25:49.934Z,3.94
2018-12-16T05:26:49.933Z,3.88
2018-12-16T05:27:49.939Z,3.91
2018-12-16T05:28:49.945Z,3.91
2018-12-16T05:29:49.908Z,3.76
2018-12-16T05:30:49.913Z,3.73
2018-12-16T05:31:49.924Z,3.81
2018-12-16T05:32:49.941Z,3.92
2018-12-16T05:33:49.926Z,4.00
2018-12-16T05:34:49.942Z,3.96
2018-12-16T05:35:49.957Z,3.99
2018-12-16T05:36:49.917Z,3.94
2018-12-16T05:37:49.958Z,3.95
2018-12-16T05:38:49.928Z,4.04
2018-12-16T05:39:49.989Z,4.09
2018-12-16T05:40:49.958Z,3.96
2018-12-16T05:41:49.984Z,4.03
2018-12-16T05:42:49.957Z,3.86
2018-12-16T05:43:49.941Z,3.84
2018-12-16T05:44:49.939Z,3.71
2018-12-16T05:45:49.956Z,3.82
2018-12-16T05:46:49.964Z,3.89
2018-12-16T05:47:49.951Z,3.85
2018-12-16T05:48:49.928Z,3.76
2018-12-16T05:49:49.967Z,3.82
2018-12-16T05:50:49.977Z,3.73
2018-12-16T05:51:50.072Z,3.78
2018-12-16T05:52:49.976Z,3.74
2018-12-16T05:53:49.977Z,3.74
2018-12-16T05:54:49.965Z,3.77
2018-12-16T05:55:50.000Z,3.73
2018-12-16T05:56:50.009Z,3.81
2018-12-16T05:57:49.955Z,3.76
2018-12-16T05:58:50.000Z,3.76
2018-12-16T05:59:50.005Z,3.74
2018-12-16T06:00:50.031Z,3.76
2018-12-16T06:01:50.005Z,3.49
2018-12-16T06:02:49.978Z,3.50
2018-12-16T06:03:49.972Z,3.66
2018-12-16T06:04:49.959Z,3.55
2018-12-16T06:05:50.038Z,3.71
2018-12-16T06:06:50.042Z,3.56
2018-12-16T06:07:50.067Z,3.70
2018-12-16T06:08:50.002Z,3.59
2018-12-16T06:09:50.005Z,3.61
2018-12-16T06:10:50.042Z,3.70
2018-12-16T06:11:50.025Z,3.73
2018-12-16T06:12:50.057Z,3.67
2018-12-16T06:13:50.017Z,3.64
2018-12-16T06:14:50.066Z,3.78
2018-12-16T06:15:50.056Z,3.74
2018-12-16T06:16:50.044Z,3.78
2018-12-16T06:17:50.041Z,3.77
2018-12-16T06:18:50.087Z,3.76
2018-12-16T06:19:50.025Z,3.77
2018-12-16T06:20:50.025Z,3.70
2018-12-16T06:21:50.015Z,3.74
2018-12-16T06:22:50.073Z,3.78
2018-12-16T06:23:55.508Z,3.70
2018-12-16T06:24:50.057Z,3.64
2018-12-16T06:25:50.021Z,3.86
2018-12-16T06:26:50.065Z,3.86
2018-12-16T06:27:50.052Z,3.74
2018-12-16T06:28:50.103Z,3.73
2018-12-16T06:29:50.049Z,3.71
2018-12-16T06:30:50.037Z,3.68
2018-12-16T06:31:50.061Z,3.66
2018-12-16T06:32:50.098Z,3.70
2018-12-16T06:33:50.122Z,3.76
2018-12-16T06:34:50.083Z,3.76
2018-12-16T06:35:50.072Z,3.71
2018-12-16T06:36:50.057Z,3.64
2018-12-16T06:37:50.065Z,3.71
2018-12-16T06:38:50.071Z,3.74
2018-12-16T06:39:50.084Z,3.77
2018-12-16T06:40:50.102Z,3.85
2018-12-16T06:41:50.119Z,3.96
2018-12-16T06:42:50.113Z,4.03
2018-12-16T06:43:50.096Z,3.99
2018-12-16T06:44:50.130Z,4.07
2018-12-16T06:45:50.126Z,4.10
2018-12-16T06:46:50.097Z,4.10
2018-12-16T06:47:50.114Z,4.13
2018-12-16T06:48:50.130Z,4.21
2018-12-16T06:49:50.126Z,4.24
2018-12-16T06:50:50.137Z,4.36
2018-12-16T06:51:50.111Z,4.27
2018-12-16T06:52:50.139Z,4.22
2018-12-16T06:53:50.113Z,4.25
2018-12-16T06:54:50.129Z,4.24
2018-12-16T06:55:50.169Z,4.27
2018-12-16T06:56:50.087Z,4.13
2018-12-16T06:57:50.106Z,4.09
2018-12-16T06:58:50.120Z,3.94
2018-12-16T06:59:50.111Z,3.91
2018-12-16T07:00:50.124Z,3.96
2018-12-16T07:01:50.199Z,3.99
2018-12-16T07:02:50.128Z,4.03
2018-12-16T07:03:50.180Z,4.07
2018-12-16T07:04:50.139Z,4.02
2018-12-16T07:05:50.146Z,3.99
2018-12-16T07:06:50.177Z,4.00
2018-12-16T07:07:50.165Z,4.00
2018-12-16T07:08:50.154Z,4.06
2018-12-16T07:09:50.171Z,4.10
2018-12-16T07:10:50.120Z,4.24
2018-12-16T07:11:50.217Z,4.07
2018-12-16T07:12:50.212Z,4.10
2018-12-16T07:13:50.129Z,4.10
2018-12-16T07:14:50.220Z,4.16
2018-12-16T07:15:50.159Z,4.24
2018-12-16T07:16:50.187Z,4.27
2018-12-16T07:17:50.154Z,4.25
2018-12-16T07:18:50.246Z,4.31
2018-12-16T07:19:50.195Z,4.31
2018-12-16T07:20:50.179Z,4.28
2018-12-16T07:21:50.191Z,4.45
2018-12-16T07:22:50.213Z,4.49
2018-12-16T07:23:50.228Z,4.49
2018-12-16T07:24:50.225Z,4.49
2018-12-16T07:25:50.214Z,4.58
2018-12-16T07:26:50.208Z,4.61
2018-12-16T07:27:50.256Z,4.64
2018-12-16T07:28:50.208Z,4.70
2018-12-16T07:29:50.531Z,4.75
2018-12-16T07:30:50.222Z,4.74
2018-12-16T07:31:50.220Z,4.78
2018-12-16T07:32:50.220Z,4.76
2018-12-16T07:33:50.217Z,4.84
2018-12-16T07:34:50.204Z,4.86
2018-12-16T07:35:50.260Z,4.78
2018-12-16T07:36:50.228Z,4.92
2018-12-16T07:37:50.198Z,4.86
2018-12-16T07:38:50.261Z,4.86
2018-12-16T07:39:50.226Z,4.89
2018-12-16T07:40:51.470Z,4.87
2018-12-16T07:41:50.274Z,4.78
2018-12-16T07:42:50.216Z,4.89
2018-12-16T07:43:50.264Z,5.01
2018-12-16T07:44:50.376Z,5.00
2018-12-16T07:45:50.337Z,4.97
2018-12-16T07:46:50.231Z,4.98
2018-12-16T07:47:50.243Z,4.90
2018-12-16T07:48:50.395Z,4.94
2018-12-16T07:49:50.287Z,5.01
2018-12-16T07:50:50.274Z,5.01
2018-12-16T07:51:50.292Z,5.05
2018-12-16T07:52:50.298Z,5.01
2018-12-16T07:53:50.293Z,4.98
2018-12-16T07:54:50.324Z,5.04
2018-12-16T07:55:50.319Z,5.10
2018-12-16T07:56:50.305Z,5.18
2018-12-16T07:57:50.296Z,5.12
2018-12-16T07:58:50.286Z,5.23
2018-12-16T07:59:50.333Z,5.16
2018-12-16T08:00:50.326Z,5.20
2018-12-16T08:01:50.340Z,5.23
2018-12-16T08:02:50.335Z,5.29
2018-12-16T08:03:50.285Z,5.28
2018-12-16T08:04:50.322Z,5.22
2018-12-16T08:05:50.339Z,5.23
2018-12-16T08:06:50.399Z,5.20
2018-12-16T08:07:50.325Z,5.23
2018-12-16T08:08:50.297Z,5.31
2018-12-16T08:09:50.332Z,5.23
2018-12-16T08:10:50.413Z,5.15
2018-12-16T08:11:50.324Z,5.15
2018-12-16T08:12:50.364Z,5.00
2018-12-16T08:13:51.057Z,5.02
2018-12-16T08:14:50.318Z,5.13
2018-12-16T08:15:50.388Z,4.98
2018-12-16T08:16:50.333Z,4.98
2018-12-16T08:17:50.321Z,5.04
2018-12-16T08:18:50.366Z,5.05
2018-12-16T08:19:50.322Z,5.12
2018-12-16T08:20:50.350Z,5.18
2018-12-16T08:21:50.307Z,5.13
2018-12-16T08:22:50.326Z,5.12
2018-12-16T08:23:50.344Z,5.18
2018-12-16T08:24:50.369Z,5.19
2018-12-16T08:25:50.327Z,5.08
2018-12-16T08:26:50.334Z,5.08
2018-12-16T08:27:50.352Z,5.08
2018-12-16T08:28:50.342Z,5.00
2018-12-16T08:29:50.389Z,5.15
2018-12-16T08:30:50.358Z,5.20
2018-12-16T08:31:50.355Z,5.13
2018-12-16T08:32:50.371Z,5.16
2018-12-16T08:33:50.372Z,5.20
2018-12-16T08:34:50.391Z,5.20
2018-12-16T08:35:50.362Z,5.25
2018-12-16T08:36:50.367Z,5.28
2018-12-16T08:37:50.383Z,5.22
2018-12-16T08:38:50.687Z,5.20
2018-12-16T08:39:50.480Z,5.12
2018-12-16T08:40:50.387Z,5.31
2018-12-16T08:41:50.417Z,5.28
2018-12-16T08:42:50.389Z,5.28
2018-12-16T08:43:50.397Z,5.34
2018-12-16T08:44:50.401Z,5.12
2018-12-16T08:45:50.425Z,5.16
2018-12-16T08:46:50.431Z,5.23
2018-12-16T08:47:50.393Z,5.23
2018-12-16T08:48:50.443Z,5.37
2018-12-16T08:49:50.979Z,5.38
2018-12-16T08:50:50.438Z,5.36
2018-12-16T08:51:50.688Z,5.38
2018-12-16T08:52:50.445Z,5.40
2018-12-16T08:53:50.496Z,5.47
2018-12-16T08:54:50.436Z,5.49
2018-12-16T08:55:50.450Z,5.47
2018-12-16T08:56:50.463Z,5.55
2018-12-16T08:57:50.504Z,5.54
2018-12-16T08:58:50.560Z,5.54
2018-12-16T08:59:50.445Z,5.62
2018-12-16T09:00:50.441Z,5.58
2018-12-16T09:01:50.474Z,5.61
2018-12-16T09:02:50.489Z,5.69
2018-12-16T09:03:50.491Z,5.61
2018-12-16T09:04:50.497Z,5.69
2018-12-16T09:05:50.542Z,5.61
2018-12-16T09:06:50.517Z,5.72
2018-12-16T09:07:50.582Z,5.61
2018-12-16T09:08:50.464Z,5.61
2018-12-16T09:09:50.495Z,5.49
2018-12-16T09:10:50.550Z,5.44
2018-12-16T09:11:50.504Z,5.51
2018-12-16T09:12:50.471Z,5.47
2018-12-16T09:13:50.591Z,5.41
2018-12-16T09:14:50.476Z,5.36
2018-12-16T09:15:50.623Z,5.43
2018-12-16T09:16:50.587Z,5.52
2018-12-16T09:17:50.550Z,5.41
2018-12-16T09:18:50.477Z,5.38
2018-12-16T09:19:50.483Z,5.23
2018-12-16T09:20:50.507Z,5.23
2018-12-16T09:21:50.532Z,5.23
2018-12-16T09:22:50.517Z,5.23
2018-12-16T09:23:50.533Z,5.25
2018-12-16T09:24:50.548Z,5.31
2018-12-16T09:25:51.039Z,5.38
2018-12-16T09:26:50.668Z,5.34
2018-12-16T09:27:50.523Z,5.34
2018-12-16T09:28:50.583Z,5.34
2018-12-16T09:29:50.558Z,5.33
2018-12-16T09:30:57.809Z,5.34
2018-12-16T09:31:50.541Z,5.36
2018-12-16T09:32:50.563Z,5.34
2018-12-16T09:33:50.551Z,5.23
2018-12-16T09:34:50.556Z,5.31
2018-12-16T09:35:50.554Z,5.40
2018-12-16T09:36:50.575Z,5.40
2018-12-16T09:37:50.579Z,5.55
2018-12-16T09:38:50.568Z,5.43
2018-12-16T09:39:50.572Z,5.47
2018-12-16T09:40:50.562Z,5.54
2018-12-16T09:41:50.566Z,5.47
2018-12-16T09:42:50.588Z,5.55
2018-12-16T09:43:50.564Z,5.58
2018-12-16T09:44:50.594Z,5.51
2018-12-16T09:45:50.603Z,5.54
2018-12-16T09:46:50.607Z,5.49
2018-12-16T09:47:50.638Z,5.51
2018-12-16T09:48:50.630Z,5.51
2018-12-16T09:49:50.585Z,5.49
2018-12-16T09:50:52.004Z,5.54
2018-12-16T09:51:51.595Z,5.52
2018-12-16T09:52:51.696Z,5.52
2018-12-16T09:53:50.857Z,5.41
2018-12-16T09:54:50.658Z,5.46
2018-12-16T09:55:50.631Z,5.54
2018-12-16T09:56:50.649Z,5.54
2018-12-16T09:57:50.612Z,5.49
2018-12-16T09:58:50.970Z,5.52
2018-12-16T09:59:50.798Z,5.51
2018-12-16T10:00:51.173Z,5.54
2018-12-16T10:01:50.622Z,5.56
2018-12-16T10:02:50.795Z,5.46
2018-12-16T10:03:50.625Z,5.51
2018-12-16T10:04:50.662Z,5.52
2018-12-16T10:05:50.852Z,5.59
2018-12-16T10:06:50.626Z,5.54
2018-12-16T10:07:50.645Z,5.58
2018-12-16T10:08:50.703Z,5.52
2018-12-16T10:09:50.683Z,5.52
2018-12-16T10:10:50.773Z,5.69
2018-12-16T10:11:51.325Z,5.69
2018-12-16T10:12:50.719Z,5.73
2018-12-16T10:13:50.678Z,5.64
2018-12-16T10:14:50.856Z,5.74
2018-12-16T10:15:50.766Z,5.84
2018-12-16T10:16:50.726Z,5.83
2018-12-16T10:17:50.761Z,5.84
2018-12-16T10:18:50.748Z,5.87
2018-12-16T10:19:57.450Z,5.73
2018-12-16T10:21:12.844Z,5.76
2018-12-16T10:21:51.178Z,5.65
2018-12-16T10:22:51.039Z,5.76
2018-12-16T10:23:50.826Z,5.77
2018-12-16T10:24:51.420Z,5.87
2018-12-16T10:25:50.836Z,5.79
2018-12-16T10:26:50.863Z,5.83
2018-12-16T10:27:51.125Z,5.90
2018-12-16T10:28:50.973Z,5.83
2018-12-16T10:29:50.920Z,5.90
2018-12-16T10:30:51.107Z,5.92
2018-12-16T10:31:51.005Z,5.97
2018-12-16T10:32:50.995Z,6.01
2018-12-16T10:33:50.816Z,6.07
2018-12-16T10:34:51.628Z,5.99
2018-12-16T10:35:51.147Z,6.02
2018-12-16T10:36:54.388Z,5.90
2018-12-16T10:37:50.824Z,5.98
2018-12-16T10:38:51.225Z,5.97
2018-12-16T10:39:50.793Z,5.97
2018-12-16T10:40:50.853Z,5.88
2018-12-16T10:41:50.947Z,5.90
2018-12-16T10:42:50.835Z,5.91
2018-12-16T10:43:50.922Z,5.95
2018-12-16T10:44:50.897Z,6.05
2018-12-16T10:45:50.812Z,6.01
2018-12-16T10:46:50.876Z,6.07
2018-12-16T10:47:50.809Z,6.06
2018-12-16T10:48:50.826Z,6.10
2018-12-16T10:49:50.902Z,6.06
2018-12-16T10:50:50.823Z,6.02
2018-12-16T10:51:50.825Z,6.02
2018-12-16T10:52:50.833Z,6.16
2018-12-16T10:53:50.797Z,6.17
2018-12-16T10:54:50.831Z,6.22
2018-12-16T10:55:51.540Z,6.22
2018-12-16T10:56:50.800Z,6.25
2018-12-16T10:57:50.829Z,6.13
2018-12-16T10:58:50.870Z,6.13
2018-12-16T10:59:50.873Z,6.20
2018-12-16T11:00:50.842Z,6.22
2018-12-16T11:01:50.842Z,6.25
2018-12-16T11:02:50.821Z,6.31
2018-12-16T11:03:50.867Z,6.26
2018-12-16T11:04:50.857Z,6.28
2018-12-16T11:05:50.874Z,6.34
2018-12-16T11:06:50.921Z,6.31
2018-12-16T11:07:50.829Z,6.31
2018-12-16T11:08:50.918Z,6.36
2018-12-16T11:09:50.842Z,6.43
2018-12-16T11:10:50.924Z,6.38
2018-12-16T11:11:50.981Z,6.41
2018-12-16T11:12:50.980Z,6.43
2018-12-16T11:13:50.959Z,6.50
2018-12-16T11:14:51.589Z,6.52
2018-12-16T11:15:50.894Z,6.53
2018-12-16T11:16:50.887Z,6.47
2018-12-16T11:17:50.936Z,6.53
2018-12-16T11:18:50.862Z,6.62
2018-12-16T11:19:50.909Z,6.54
2018-12-16T11:20:50.913Z,6.57
2018-12-16T11:21:50.881Z,6.44
2018-12-16T11:22:50.924Z,6.60
2018-12-16T11:23:54.009Z,6.60
2018-12-16T11:24:50.900Z,6.64
2018-12-16T11:25:50.944Z,6.57
2018-12-16T11:26:50.966Z,6.64
2018-12-16T11:27:50.969Z,6.70
2018-12-16T11:28:51.184Z,6.71
2018-12-16T11:29:50.923Z,6.60
2018-12-16T11:30:50.974Z,6.65
2018-12-16T11:31:50.925Z,6.74
2018-12-16T11:32:50.937Z,6.80
2018-12-16T11:33:51.035Z,6.77
2018-12-16T11:34:50.947Z,6.74
2018-12-16T11:35:50.955Z,6.82
2018-12-16T11:36:51.080Z,6.75
2018-12-16T11:37:50.952Z,6.72
2018-12-16T11:38:51.034Z,6.74
2018-12-16T11:39:50.951Z,6.71
2018-12-16T11:40:51.019Z,6.68
2018-12-16T11:41:51.146Z,6.71
2018-12-16T11:42:51.011Z,6.75
2018-12-16T11:43:51.012Z,6.72
2018-12-16T11:44:50.992Z,6.75
2018-12-16T11:45:51.001Z,6.75
2018-12-16T11:46:50.980Z,6.78
2018-12-16T11:47:51.004Z,6.80
2018-12-16T11:48:51.017Z,6.74
2018-12-16T11:49:50.958Z,6.70
2018-12-16T11:50:50.975Z,6.60
2018-12-16T11:51:51.021Z,6.64
2018-12-16T11:52:51.045Z,6.64
2018-12-16T11:53:50.970Z,6.70
2018-12-16T11:54:51.012Z,6.82
2018-12-16T11:55:51.037Z,6.71
2018-12-16T11:56:51.009Z,6.78
2018-12-16T11:57:51.017Z,6.77
2018-12-16T11:58:51.056Z,6.86
2018-12-16T11:59:51.099Z,6.74
2018-12-16T12:00:51.022Z,6.85
2018-12-16T12:01:51.060Z,6.74
2018-12-16T12:02:51.076Z,6.83
2018-12-16T12:03:51.027Z,6.75
2018-12-16T12:04:51.259Z,6.78
2018-12-16T12:05:51.129Z,6.78
2018-12-16T12:06:51.039Z,6.72
2018-12-16T12:07:51.030Z,6.78
2018-12-16T12:08:51.072Z,6.90
2018-12-16T12:09:51.097Z,7.00
2018-12-16T12:10:51.044Z,6.85
2018-12-16T12:11:51.060Z,6.87
2018-12-16T12:12:51.057Z,6.87
2018-12-16T12:13:51.046Z,6.86
2018-12-16T12:14:51.082Z,6.85
2018-12-16T12:15:51.116Z,6.82
2018-12-16T12:16:51.066Z,6.85
2018-12-16T12:17:51.097Z,6.89
2018-12-16T12:18:51.094Z,6.71
2018-12-16T12:19:51.113Z,6.89
2018-12-16T12:20:51.089Z,6.77
2018-12-16T12:21:51.116Z,6.78
2018-12-16T12:22:51.135Z,6.78
2018-12-16T12:23:51.119Z,6.83
2018-12-16T12:24:51.150Z,6.75
2018-12-16T12:25:51.129Z,6.90
2018-12-16T12:26:51.116Z,6.90
2018-12-16T12:27:51.113Z,6.92
2018-12-16T12:28:51.106Z,6.97
2018-12-16T12:29:51.151Z,6.97
2018-12-16T12:30:51.421Z,6.97
2018-12-16T12:31:51.126Z,6.96
2018-12-16T12:32:51.196Z,7.00
2018-12-16T12:33:51.189Z,7.04
2018-12-16T12:34:51.160Z,7.00
2018-12-16T12:35:51.193Z,6.97
2018-12-16T12:36:51.161Z,7.01
2018-12-16T12:37:51.227Z,7.11
2018-12-16T12:38:51.154Z,7.05
2018-12-16T12:39:51.170Z,7.18
2018-12-16T12:40:51.224Z,7.19
2018-12-16T12:41:51.290Z,7.11
2018-12-16T12:42:51.185Z,7.07
2018-12-16T12:43:51.203Z,7.03
2018-12-16T12:44:51.148Z,6.93
2018-12-16T12:45:51.204Z,6.93
2018-12-16T12:46:51.168Z,6.93
2018-12-16T12:47:51.251Z,7.03
2018-12-16T12:48:51.189Z,6.86
2018-12-16T12:49:51.233Z,7.01
2018-12-16T12:50:51.208Z,6.96
2018-12-16T12:51:51.290Z,7.01
2018-12-16T12:52:51.210Z,7.00
2018-12-16T12:53:51.281Z,6.92
2018-12-16T12:54:51.239Z,7.04
2018-12-16T12:55:51.212Z,6.97
2018-12-16T12:56:51.209Z,7.01
2018-12-16T12:57:51.270Z,7.03
2018-12-16T12:58:51.235Z,7.03
2018-12-16T12:59:51.256Z,7.04
2018-12-16T13:00:51.231Z,7.01
2018-12-16T13:01:51.275Z,7.13
2018-12-16T13:02:51.261Z,7.05
2018-12-16T13:03:51.376Z,7.03
2018-12-16T13:04:51.259Z,7.03
2018-12-16T13:05:51.255Z,7.01
2018-12-16T13:06:51.459Z,7.05
2018-12-16T13:07:51.250Z,7.01
2018-12-16T13:08:51.345Z,7.05
2018-12-16T13:09:51.282Z,6.96
2018-12-16T13:10:51.283Z,7.00
2018-12-16T13:11:51.290Z,7.03
2018-12-16T13:12:51.345Z,7.03
2018-12-16T13:13:51.265Z,6.87
2018-12-16T13:14:51.310Z,6.93
2018-12-16T13:15:51.313Z,6.92
2018-12-16T13:16:51.272Z,6.89
2018-12-16T13:17:51.317Z,6.80
2018-12-16T13:18:51.317Z,6.85